Time;durP1;ratioP1;P1;durP2;ratioP2;P2;SDS_P1;SDS_P2;PMS_P1;PMS_P2;Temp;Humidity;BMP_temperature;BMP_pressure;BME280_temperature;BME280_humidity;BME280_pressure;Samples;Min_cycle;Max_cycle;Signal;HPM_P1;HPM_P2
2024/01/26 00:01:08;;;;;;;22.80;19.30;;;9.90;99.90;;;;;;3117268;28;20025;-71
2024/01/26 00:02:38;;;;;;;20.83;16.95;;;10.00;99.90;;;;;;3117542;28;20220;-72
2024/01/26 00:04:09;;;;;;;22.42;16.77;;;10.00;99.90;;;;;;3116811;28;20100;-72
2024/01/26 00:05:40;;;;;;;24.05;18.98;;;9.90;99.90;;;;;;3112635;28;20044;-72
2024/01/26 00:07:11;;;;;;;28.63;20.20;;;10.00;99.90;;;;;;3112446;28;20018;-72
2024/01/26 00:08:41;;;;;;;23.08;18.17;;;10.00;99.90;;;;;;3112674;28;20354;-71
2024/01/26 00:10:12;;;;;;;24.02;17.90;;;9.90;99.90;;;;;;3115761;28;20086;-72
2024/01/26 00:11:43;;;;;;;17.60;15.70;;;9.80;99.90;;;;;;3117501;28;20018;-71
2024/01/26 00:13:14;;;;;;;21.15;17.83;;;10.00;99.90;;;;;;3117105;28;20057;-71
2024/01/26 00:14:45;;;;;;;24.77;16.27;;;9.90;99.90;;;;;;3104401;28;20026;-71
2024/01/26 00:16:15;;;;;;;19.70;15.05;;;9.90;99.90;;;;;;3088095;28;21121;-72
2024/01/26 00:17:46;;;;;;;24.80;18.15;;;9.90;99.90;;;;;;3107002;28;20185;-72
2024/01/26 00:19:17;;;;;;;18.95;16.98;;;10.00;99.90;;;;;;3116389;28;20034;-72
2024/01/26 00:20:48;;;;;;;20.75;18.55;;;9.90;99.90;;;;;;3116781;28;20034;-72
2024/01/26 00:22:20;;;;;;;19.17;16.58;;;10.00;99.90;;;;;;3116926;28;20216;-71
2024/01/26 00:23:51;;;;;;;25.77;16.10;;;10.00;99.90;;;;;;3112339;28;20240;-72
2024/01/26 00:25:22;;;;;;;23.60;18.02;;;10.00;99.90;;;;;;3100388;28;20030;-71
2024/01/26 00:26:53;;;;;;;19.83;16.08;;;10.00;99.90;;;;;;3113411;28;20026;-72
2024/01/26 00:28:24;;;;;;;19.70;16.95;;;10.00;99.90;;;;;;3128675;28;20050;-71
2024/01/26 00:29:54;;;;;;;17.45;15.55;;;9.90;99.90;;;;;;3113708;28;20089;-71
2024/01/26 00:31:25;;;;;;;20.88;17.38;;;10.00;99.90;;;;;;3104835;28;20189;-71
2024/01/26 00:32:59;;;;;;;17.85;15.95;;;9.90;99.90;;;;;;3117396;28;20094;-72
2024/01/26 00:34:30;;;;;;;20.38;18.05;;;9.90;99.90;;;;;;3116612;28;20033;-71
2024/01/26 00:36:00;;;;;;;24.17;18.25;;;9.90;99.90;;;;;;3117122;28;20223;-72
2024/01/26 00:37:31;;;;;;;18.30;14.82;;;9.90;99.90;;;;;;3125916;28;20343;-73
2024/01/26 00:39:02;;;;;;;18.58;15.77;;;9.90;99.90;;;;;;3128811;28;20300;-71
2024/01/26 00:40:33;;;;;;;21.50;15.80;;;9.90;99.90;;;;;;3116978;28;20085;-72
2024/01/26 00:42:04;;;;;;;18.38;16.40;;;10.00;99.90;;;;;;3116340;28;20288;-72
2024/01/26 00:43:34;;;;;;;19.85;16.85;;;10.00;99.90;;;;;;3113045;28;20029;-72
2024/01/26 00:45:05;;;;;;;21.02;17.23;;;9.90;99.90;;;;;;3124490;28;20105;-71
2024/01/26 00:46:37;;;;;;;17.85;15.90;;;10.00;99.90;;;;;;3120872;28;20396;-71
2024/01/26 00:48:07;;;;;;;19.83;14.40;;;9.90;99.90;;;;;;3117334;28;20022;-72
2024/01/26 00:49:38;;;;;;;20.00;16.77;;;10.00;99.90;;;;;;3127673;28;20037;-73
2024/01/26 00:51:11;;;;;;;19.23;15.13;;;9.90;99.90;;;;;;3116229;28;20087;-72
2024/01/26 00:52:42;;;;;;;20.42;16.77;;;9.90;99.90;;;;;;3129480;28;20021;-71
2024/01/26 00:54:13;;;;;;;19.30;16.20;;;9.90;99.90;;;;;;3141051;28;20047;-72
2024/01/26 00:55:44;;;;;;;17.80;16.10;;;9.90;99.90;;;;;;3120321;28;20396;-71
2024/01/26 00:57:15;;;;;;;16.27;14.05;;;9.90;99.90;;;;;;3121246;28;20018;-72
2024/01/26 00:58:45;;;;;;;17.05;14.55;;;10.00;99.90;;;;;;3104322;28;20048;-72
2024/01/26 01:00:17;;;;;;;16.05;14.45;;;10.00;99.90;;;;;;3111553;28;20232;-71
2024/01/26 01:01:47;;;;;;;14.10;12.48;;;10.00;99.90;;;;;;3112776;28;20018;-71
2024/01/26 01:03:19;;;;;;;14.23;12.18;;;9.90;99.90;;;;;;3100214;28;20100;-72
2024/01/26 01:04:50;;;;;;;11.93;10.45;;;9.90;99.90;;;;;;3113048;28;20024;-71
2024/01/26 01:06:21;;;;;;;9.43;8.55;;;10.00;99.90;;;;;;3116743;28;20021;-72
2024/01/26 01:07:52;;;;;;;9.75;8.95;;;9.90;99.90;;;;;;3104761;28;20027;-71
2024/01/26 01:09:22;;;;;;;10.50;8.55;;;10.00;99.90;;;;;;3105633;28;20022;-72
2024/01/26 01:10:53;;;;;;;7.22;6.38;;;10.00;99.90;;;;;;3141035;28;20056;-72
2024/01/26 01:12:24;;;;;;;14.10;7.53;;;10.00;99.90;;;;;;3133068;28;20029;-72
2024/01/26 01:13:55;;;;;;;6.05;5.45;;;10.00;99.90;;;;;;3129176;28;20311;-71
2024/01/26 01:15:26;;;;;;;12.38;5.68;;;10.00;99.90;;;;;;3129373;28;20026;-71
2024/01/26 01:16:56;;;;;;;7.07;6.00;;;10.00;99.90;;;;;;3136073;28;20338;-72
2024/01/26 01:18:27;;;;;;;6.28;5.68;;;10.10;99.90;;;;;;3120479;28;20053;-71
2024/01/26 01:19:58;;;;;;;6.20;5.45;;;10.00;99.90;;;;;;3104339;28;20343;-71
2024/01/26 01:21:29;;;;;;;6.40;5.80;;;10.00;99.90;;;;;;3121888;28;20037;-71
2024/01/26 01:23:00;;;;;;;7.00;5.53;;;10.00;99.90;;;;;;3119176;28;20312;-71
2024/01/26 01:24:31;;;;;;;9.80;8.43;;;10.00;99.90;;;;;;3118961;28;20100;-72
2024/01/26 01:26:02;;;;;;;7.15;6.50;;;10.00;99.90;;;;;;3131212;28;20022;-71
2024/01/26 01:27:36;;;;;;;10.57;8.63;;;10.00;99.90;;;;;;3123466;28;20028;-71
2024/01/26 01:29:06;;;;;;;8.93;7.63;;;10.00;99.90;;;;;;3119829;28;20312;-72
2024/01/26 01:30:40;;;;;;;8.93;7.45;;;10.00;99.90;;;;;;3117831;28;20097;-72
2024/01/26 01:32:10;;;;;;;18.88;7.32;;;10.00;99.90;;;;;;3117168;28;20093;-71
2024/01/26 01:33:41;;;;;;;14.18;7.72;;;9.90;99.90;;;;;;3119516;28;20030;-71
2024/01/26 01:35:12;;;;;;;9.32;8.43;;;10.00;99.90;;;;;;3119581;28;20079;-71
2024/01/26 01:36:43;;;;;;;9.68;8.85;;;9.90;99.90;;;;;;3118348;28;20037;-72
2024/01/26 01:38:13;;;;;;;9.15;7.68;;;10.00;99.90;;;;;;3119507;28;20304;-71
2024/01/26 01:39:44;;;;;;;10.45;8.23;;;9.90;99.90;;;;;;3119780;28;20019;-72
2024/01/26 01:41:15;;;;;;;6.78;6.18;;;9.90;99.90;;;;;;3118724;28;20029;-72
2024/01/26 01:42:46;;;;;;;8.48;6.97;;;9.90;99.90;;;;;;3118149;28;20025;-71
2024/01/26 01:44:17;;;;;;;10.90;7.20;;;10.00;99.90;;;;;;3118509;28;20092;-72
2024/01/26 01:45:48;;;;;;;6.50;5.90;;;10.00;99.90;;;;;;3119319;28;20033;-71
2024/01/26 01:47:19;;;;;;;7.80;7.10;;;10.00;99.90;;;;;;3130446;28;20330;-71
2024/01/26 01:48:50;;;;;;;7.50;6.43;;;10.00;99.90;;;;;;3123218;28;20132;-72
2024/01/26 01:50:21;;;;;;;7.15;6.55;;;10.00;99.90;;;;;;3118273;28;20088;-73
2024/01/26 01:51:54;;;;;;;7.65;7.03;;;9.90;99.90;;;;;;3118178;28;20017;-71
2024/01/26 01:53:25;;;;;;;5.25;4.75;;;9.90;99.90;;;;;;3118553;28;20327;-72
2024/01/26 01:54:59;;;;;;;5.95;5.45;;;10.00;99.90;;;;;;3118436;28;20065;-71
2024/01/26 01:56:30;;;;;;;4.68;4.25;;;9.90;99.90;;;;;;3115124;28;20045;-71
2024/01/26 01:58:01;;;;;;;5.28;4.78;;;9.90;99.90;;;;;;3119122;28;20022;-71
2024/01/26 01:59:33;;;;;;;8.13;4.18;;;9.90;99.90;;;;;;3118329;28;22900;-71
2024/01/26 02:01:04;;;;;;;5.20;4.70;;;9.90;99.90;;;;;;3118251;28;20049;-72
2024/01/26 02:02:35;;;;;;;5.63;5.13;;;9.90;99.90;;;;;;3114195;28;20029;-72
2024/01/26 02:04:06;;;;;;;5.15;4.65;;;9.90;99.90;;;;;;3132575;28;20044;-71
2024/01/26 02:05:37;;;;;;;6.90;5.63;;;9.90;99.90;;;;;;3122840;28;20041;-71
2024/01/26 02:07:08;;;;;;;7.50;4.68;;;9.90;99.90;;;;;;3119121;28;20187;-71
2024/01/26 02:08:40;;;;;;;4.57;4.20;;;9.90;99.90;;;;;;3119370;28;20041;-73
2024/01/26 02:10:11;;;;;;;5.47;4.97;;;10.00;99.90;;;;;;3117855;28;20026;-71
2024/01/26 02:11:41;;;;;;;4.18;3.78;;;9.90;99.90;;;;;;3118712;28;20093;-71
2024/01/26 02:13:12;;;;;;;7.57;4.93;;;10.00;99.90;;;;;;3119333;28;20026;-71
2024/01/26 02:14:44;;;;;;;8.38;4.05;;;9.90;99.90;;;;;;3130447;28;20052;-71
2024/01/26 02:16:15;;;;;;;6.28;4.22;;;9.90;99.90;;;;;;3122099;28;20037;-71
2024/01/26 02:17:45;;;;;;;19.10;4.20;;;10.00;99.90;;;;;;3118618;28;20033;-72
2024/01/26 02:19:16;;;;;;;4.35;3.95;;;10.00;99.90;;;;;;3118799;28;20296;-71
2024/01/26 02:20:50;;;;;;;6.00;4.30;;;9.90;99.90;;;;;;3117779;28;20038;-71
2024/01/26 02:22:21;;;;;;;5.65;5.00;;;10.00;99.90;;;;;;3114431;28;20263;-73
2024/01/26 02:23:52;;;;;;;6.32;4.18;;;9.90;99.90;;;;;;3118771;28;20034;-71
2024/01/26 02:25:22;;;;;;;3.53;3.17;;;9.90;99.90;;;;;;3118787;28;20045;-71
2024/01/26 02:26:53;;;;;;;4.53;3.58;;;10.00;99.90;;;;;;3118259;28;20105;-71
2024/01/26 02:28:24;;;;;;;3.97;3.55;;;10.00;99.90;;;;;;3117530;28;20088;-72
2024/01/26 02:29:55;;;;;;;3.85;3.50;;;10.00;99.90;;;;;;3117508;28;20141;-72
2024/01/26 02:31:25;;;;;;;4.10;3.80;;;9.90;99.90;;;;;;3117450;28;20327;-72
2024/01/26 02:32:59;;;;;;;6.10;5.60;;;10.00;99.90;;;;;;3118379;28;20033;-71
2024/01/26 02:34:30;;;;;;;5.55;5.05;;;10.00;99.90;;;;;;3118419;28;20026;-72
2024/01/26 02:36:00;;;;;;;4.28;3.70;;;10.00;99.90;;;;;;3118297;28;20044;-71
2024/01/26 02:37:31;;;;;;;6.68;3.80;;;10.10;99.90;;;;;;3118018;28;20021;-71
2024/01/26 02:39:02;;;;;;;5.47;4.97;;;10.00;99.90;;;;;;3117690;28;20366;-71
2024/01/26 02:40:33;;;;;;;11.15;5.10;;;10.10;99.90;;;;;;3110541;28;20021;-72
2024/01/26 02:42:05;;;;;;;5.78;4.32;;;10.10;99.90;;;;;;3101251;28;20260;-73
2024/01/26 02:43:36;;;;;;;6.28;5.63;;;10.10;99.90;;;;;;3126449;28;20024;-71
2024/01/26 02:45:07;;;;;;;5.28;4.72;;;10.10;99.90;;;;;;3114629;28;20030;-71
2024/01/26 02:46:38;;;;;;;6.05;4.20;;;10.10;99.90;;;;;;3106010;28;20034;-72
2024/01/26 02:48:08;;;;;;;7.10;6.10;;;10.10;99.90;;;;;;3105892;28;20331;-73
2024/01/26 02:49:42;;;;;;;8.98;5.28;;;10.10;99.90;;;;;;3109589;28;20028;-71
2024/01/26 02:51:13;;;;;;;5.28;4.78;;;10.10;99.90;;;;;;3118443;28;20250;-71
2024/01/26 02:52:44;;;;;;;7.13;5.63;;;10.10;99.90;;;;;;3106045;28;20061;-71
2024/01/26 02:54:17;;;;;;;6.53;5.20;;;10.10;99.90;;;;;;3114385;28;20036;-71
2024/01/26 02:55:48;;;;;;;6.15;5.55;;;10.10;99.90;;;;;;3117776;28;20017;-72
2024/01/26 02:57:19;;;;;;;5.55;5.05;;;10.10;99.90;;;;;;3101763;28;20053;-72
2024/01/26 02:58:50;;;;;;;5.78;5.22;;;10.10;99.90;;;;;;3101474;28;20315;-71
2024/01/26 03:00:21;;;;;;;6.18;5.63;;;10.10;99.90;;;;;;3112850;28;20030;-71
2024/01/26 03:01:52;;;;;;;6.68;5.95;;;10.10;99.90;;;;;;3117478;28;20026;-71
2024/01/26 03:03:23;;;;;;;12.05;6.97;;;10.10;99.90;;;;;;3117815;28;20041;-71
2024/01/26 03:04:54;;;;;;;14.30;7.60;;;10.10;99.90;;;;;;3113483;28;20022;-72
2024/01/26 03:06:25;;;;;;;6.35;5.63;;;10.10;99.90;;;;;;3113517;28;20585;-72
2024/01/26 03:07:55;;;;;;;11.00;5.88;;;10.10;99.90;;;;;;3113904;28;20026;-73
2024/01/26 03:09:26;;;;;;;7.05;6.07;;;10.10;99.90;;;;;;3117200;28;20100;-71
2024/01/26 03:10:57;;;;;;;6.75;5.78;;;10.20;99.90;;;;;;3117384;28;20021;-72
2024/01/26 03:12:28;;;;;;;6.28;5.70;;;10.20;99.90;;;;;;3117977;28;20057;-72
2024/01/26 03:13:59;;;;;;;5.72;5.10;;;10.20;99.90;;;;;;3113705;28;20030;-72
2024/01/26 03:15:29;;;;;;;6.47;5.90;;;10.20;99.90;;;;;;3116961;28;20227;-71
2024/01/26 03:17:00;;;;;;;8.73;6.45;;;10.20;99.90;;;;;;3118055;28;20045;-71
2024/01/26 03:18:31;;;;;;;6.93;5.32;;;10.20;99.90;;;;;;3118315;28;20037;-72
2024/01/26 03:20:02;;;;;;;5.97;5.47;;;10.20;99.90;;;;;;3117199;28;20017;-71
2024/01/26 03:21:34;;;;;;;6.82;6.13;;;10.20;99.90;;;;;;3117720;28;20041;-72
2024/01/26 03:23:04;;;;;;;6.85;6.15;;;10.20;99.90;;;;;;3117912;28;20037;-71
2024/01/26 03:24:38;;;;;;;7.05;6.35;;;10.20;99.90;;;;;;3112786;28;20406;-72
2024/01/26 03:26:08;;;;;;;7.38;5.63;;;10.20;99.90;;;;;;3113703;28;20052;-72
2024/01/26 03:27:39;;;;;;;6.60;5.95;;;10.20;99.90;;;;;;3117980;28;20245;-71
2024/01/26 03:29:10;;;;;;;5.95;5.40;;;10.20;99.90;;;;;;3117433;28;20034;-71
2024/01/26 03:30:43;;;;;;;5.15;4.65;;;10.20;99.90;;;;;;3116965;28;20044;-71
2024/01/26 03:32:14;;;;;;;7.57;5.63;;;10.20;99.90;;;;;;3117380;28;20064;-71
2024/01/26 03:33:45;;;;;;;6.22;5.60;;;10.20;99.90;;;;;;3117595;28;20076;-71
2024/01/26 03:35:16;;;;;;;6.20;5.60;;;10.20;99.90;;;;;;3117407;28;20330;-72
2024/01/26 03:36:47;;;;;;;6.78;5.03;;;10.20;99.90;;;;;;3117936;28;20064;-72
2024/01/26 03:38:18;;;;;;;5.40;4.93;;;10.20;99.90;;;;;;3117481;28;20018;-71
2024/01/26 03:39:48;;;;;;;8.05;5.50;;;10.20;99.90;;;;;;3116981;28;20158;-73
2024/01/26 03:41:20;;;;;;;5.22;4.72;;;10.20;99.90;;;;;;3098807;28;20033;-72
2024/01/26 03:42:51;;;;;;;5.05;4.65;;;10.20;99.90;;;;;;3088449;28;20031;-71
2024/01/26 03:44:22;;;;;;;6.82;6.22;;;10.20;99.90;;;;;;3109262;28;20033;-71
2024/01/26 03:45:52;;;;;;;10.05;5.03;;;10.20;99.90;;;;;;3105212;28;20150;-71
2024/01/26 03:47:23;;;;;;;5.35;4.45;;;10.20;99.90;;;;;;3105913;28;20085;-71
2024/01/26 03:48:54;;;;;;;5.70;5.20;;;10.20;99.90;;;;;;3105995;28;20026;-72
2024/01/26 03:50:25;;;;;;;5.47;5.07;;;10.20;99.90;;;;;;3114025;28;20026;-72
2024/01/26 03:51:55;;;;;;;6.43;4.97;;;10.20;99.90;;;;;;3117857;28;20026;-71
2024/01/26 03:53:26;;;;;;;6.63;5.80;;;10.20;99.90;;;;;;3129534;28;20034;-71
2024/01/26 03:54:57;;;;;;;6.90;5.45;;;10.10;99.90;;;;;;3117174;28;20026;-73
2024/01/26 03:56:28;;;;;;;4.95;4.50;;;10.00;99.90;;;;;;3117665;28;20323;-72
2024/01/26 03:57:59;;;;;;;7.55;6.40;;;10.00;99.90;;;;;;3117288;28;20030;-72
2024/01/26 03:59:29;;;;;;;6.05;5.28;;;10.00;99.90;;;;;;3115556;28;20115;-72
2024/01/26 04:01:01;;;;;;;5.28;4.78;;;10.00;99.90;;;;;;3117600;28;20381;-73
2024/01/26 04:02:31;;;;;;;6.50;5.63;;;9.90;99.90;;;;;;3117677;28;20029;-71
2024/01/26 04:04:02;;;;;;;6.18;5.00;;;9.90;99.90;;;;;;3118096;28;20338;-72
2024/01/26 04:05:33;;;;;;;5.53;5.03;;;9.90;99.90;;;;;;3116774;28;20332;-72
2024/01/26 04:07:04;;;;;;;7.15;6.47;;;9.90;99.90;;;;;;3104699;28;20218;-71
2024/01/26 04:08:35;;;;;;;8.27;5.90;;;9.90;99.90;;;;;;3108596;28;20025;-72
2024/01/26 04:10:06;;;;;;;5.13;4.72;;;9.90;99.90;;;;;;3099235;28;20033;-72
2024/01/26 04:11:43;;;;;;;7.22;5.72;;;9.90;99.90;;;;;;3113139;28;20029;-71
2024/01/26 04:13:13;;;;;;;6.25;5.65;;;9.90;99.90;;;;;;3104622;28;20042;-71
2024/01/26 04:14:44;;;;;;;5.25;4.85;;;9.90;99.90;;;;;;3100739;28;20378;-71
2024/01/26 04:16:15;;;;;;;7.82;7.20;;;9.90;99.90;;;;;;3120801;28;20033;-73
2024/01/26 04:17:46;;;;;;;7.20;6.57;;;10.00;99.90;;;;;;3116727;28;20049;-71
2024/01/26 04:19:17;;;;;;;6.95;6.28;;;9.90;99.90;;;;;;3099030;28;20149;-72
2024/01/26 04:20:51;;;;;;;6.72;6.03;;;9.90;99.90;;;;;;3096557;28;20023;-73
2024/01/26 04:22:22;;;;;;;6.47;5.32;;;9.90;99.90;;;;;;3109531;28;20021;-71
2024/01/26 04:23:53;;;;;;;6.15;5.53;;;9.90;99.90;;;;;;3117311;28;20014;-71
2024/01/26 04:25:23;;;;;;;9.05;6.65;;;9.90;99.90;;;;;;3117772;28;20079;-71
2024/01/26 04:26:54;;;;;;;6.05;5.50;;;9.90;99.90;;;;;;3116840;28;20032;-72
2024/01/26 04:28:25;;;;;;;6.75;6.03;;;;;;;;;;3100323;28;20049;-71
2024/01/26 04:29:56;;;;;;;7.60;5.65;;;9.80;99.90;;;;;;3108156;28;20044;-72
2024/01/26 04:31:27;;;;;;;5.72;5.13;;;;;;;;;;3104686;28;20100;-72
2024/01/26 04:32:59;;;;;;;6.63;5.90;;;11.80;99.90;;;;;;3104438;28;20025;-71
2024/01/26 04:34:29;;;;;;;6.70;6.00;;;9.80;99.90;;;;;;3108437;28;20200;-73
2024/01/26 04:36:00;;;;;;;6.00;5.47;;;9.80;99.90;;;;;;3112332;28;20041;-71
2024/01/26 04:37:31;;;;;;;12.60;5.65;;;9.70;99.90;;;;;;3112828;28;20033;-71
2024/01/26 04:39:02;;;;;;;7.25;5.50;;;9.70;99.90;;;;;;3117288;28;20310;-71
2024/01/26 04:40:33;;;;;;;5.13;4.43;;;9.70;99.90;;;;;;3116301;28;20034;-71
2024/01/26 04:42:07;;;;;;;6.00;5.50;;;9.70;99.90;;;;;;3116345;28;20080;-71
2024/01/26 04:43:37;;;;;;;6.25;5.68;;;9.80;99.90;;;;;;3116816;28;20014;-71
2024/01/26 04:45:08;;;;;;;4.72;4.43;;;9.80;99.90;;;;;;3117198;28;20026;-71
2024/01/26 04:46:39;;;;;;;7.07;5.63;;;9.80;99.90;;;;;;3117371;28;20033;-72
2024/01/26 04:48:10;;;;;;;5.95;5.15;;;9.80;99.90;;;;;;3117622;28;20029;-71
2024/01/26 04:49:41;;;;;;;7.63;5.07;;;9.90;99.90;;;;;;3103322;28;20023;-71
2024/01/26 04:51:12;;;;;;;9.52;6.30;;;9.80;99.90;;;;;;3111984;28;20256;-71
2024/01/26 04:52:43;;;;;;;5.50;5.00;;;9.90;99.90;;;;;;3112720;28;20033;-71
2024/01/26 04:54:13;;;;;;;4.43;4.03;;;9.90;99.90;;;;;;3116913;28;20417;-72
2024/01/26 04:55:44;;;;;;;6.32;5.70;;;9.90;99.90;;;;;;3116148;28;20034;-71
2024/01/26 04:57:15;;;;;;;8.23;5.13;;;9.90;99.90;;;;;;3104610;28;20308;-72
2024/01/26 04:58:45;;;;;;;8.23;5.20;;;9.90;99.90;;;;;;3113057;28;20084;-72
2024/01/26 05:00:20;;;;;;;4.63;4.03;;;9.90;99.90;;;;;;3116774;28;20358;-71
2024/01/26 05:01:51;;;;;;;4.45;4.05;;;9.90;99.90;;;;;;3116300;28;20033;-72
2024/01/26 05:03:22;;;;;;;4.25;3.85;;;10.00;99.90;;;;;;3116878;28;20025;-71
2024/01/26 05:04:52;;;;;;;5.47;4.97;;;10.00;99.90;;;;;;3116117;28;20041;-71
2024/01/26 05:06:23;;;;;;;5.30;4.90;;;10.00;99.90;;;;;;3112426;28;20038;-73
2024/01/26 05:07:54;;;;;;;7.25;4.68;;;10.00;99.90;;;;;;3116410;28;20304;-72
2024/01/26 05:09:25;;;;;;;5.18;4.75;;;9.90;99.90;;;;;;3111170;28;20022;-71
2024/01/26 05:10:56;;;;;;;5.85;5.07;;;9.90;99.90;;;;;;3116914;28;20049;-72
2024/01/26 05:12:27;;;;;;;5.72;5.28;;;9.90;99.90;;;;;;3116364;28;20307;-71
2024/01/26 05:13:57;;;;;;;5.43;4.93;;;9.90;99.90;;;;;;3112404;28;20032;-71
2024/01/26 05:15:28;;;;;;;4.28;3.90;;;9.90;99.90;;;;;;3112111;28;20548;-72
2024/01/26 05:16:59;;;;;;;3.83;3.53;;;9.90;99.90;;;;;;3099458;28;20220;-72
2024/01/26 05:18:29;;;;;;;8.40;5.97;;;9.90;99.90;;;;;;3108267;28;20049;-72
2024/01/26 05:20:00;;;;;;;10.43;6.97;;;9.90;99.90;;;;;;3115478;28;20041;-71
2024/01/26 05:21:32;;;;;;;6.28;4.85;;;9.90;99.90;;;;;;3115810;28;20022;-71
2024/01/26 05:23:03;;;;;;;13.32;4.28;;;9.90;99.90;;;;;;3116957;28;20136;-72
2024/01/26 05:24:34;;;;;;;11.10;6.97;;;10.00;99.90;;;;;;3128629;28;20028;-72
2024/01/26 05:26:06;;;;;;;5.72;5.10;;;10.00;99.90;;;;;;3121044;28;20338;-72
2024/01/26 05:27:40;;;;;;;7.38;4.97;;;10.00;99.90;;;;;;3116470;28;20057;-71
2024/01/26 05:29:11;;;;;;;7.13;5.13;;;10.00;99.90;;;;;;3121968;28;20030;-76
2024/01/26 05:30:42;;;;;;;4.78;4.18;;;10.00;99.90;;;;;;3112137;28;20026;-71
2024/01/26 05:32:14;;;;;;;7.35;6.75;;;10.00;99.90;;;;;;3118990;28;20093;-71
2024/01/26 05:33:45;;;;;;;7.18;6.03;;;10.00;99.90;;;;;;3116223;28;20095;-71
2024/01/26 05:35:15;;;;;;;7.85;5.88;;;9.90;99.90;;;;;;3116090;28;20018;-71
2024/01/26 05:36:46;;;;;;;11.32;6.40;;;9.90;99.90;;;;;;3112026;28;20042;-71
2024/01/26 05:38:17;;;;;;;5.95;5.43;;;9.90;99.90;;;;;;3112435;28;20105;-72
2024/01/26 05:39:48;;;;;;;9.40;6.03;;;9.90;99.90;;;;;;3105680;28;20268;-73
2024/01/26 05:41:18;;;;;;;6.45;5.82;;;9.90;99.90;;;;;;3102714;28;20030;-72
2024/01/26 05:42:49;;;;;;;5.97;5.47;;;9.80;99.90;;;;;;3112234;28;20243;-71
2024/01/26 05:44:20;;;;;;;5.72;5.15;;;9.80;99.90;;;;;;3117148;28;20033;-71
2024/01/26 05:45:51;;;;;;;7.90;7.15;;;9.80;99.90;;;;;;3136518;28;20021;-72
2024/01/26 05:47:22;;;;;;;7.15;6.47;;;9.80;99.90;;;;;;3120094;28;20097;-71
2024/01/26 05:48:52;;;;;;;13.30;7.55;;;9.80;99.90;;;;;;3124662;28;20315;-75
2024/01/26 05:50:23;;;;;;;6.85;6.15;;;9.80;99.90;;;;;;3124314;28;20121;-73
2024/01/26 05:51:54;;;;;;;10.07;8.35;;;9.80;99.90;;;;;;3113486;28;20026;-72
2024/01/26 05:53:25;;;;;;;10.60;6.63;;;9.80;99.90;;;;;;3110438;28;20129;-71
2024/01/26 05:54:55;;;;;;;10.23;8.23;;;9.70;99.90;;;;;;3114499;28;20040;-71
2024/01/26 05:56:26;;;;;;;7.82;7.00;;;9.80;99.90;;;;;;3114208;28;20042;-72
2024/01/26 05:57:57;;;;;;;8.13;7.45;;;9.70;99.90;;;;;;3115249;28;20030;-71
2024/01/26 05:59:28;;;;;;;7.90;7.28;;;9.80;99.90;;;;;;3110032;28;20181;-72
2024/01/26 06:00:59;;;;;;;8.23;7.53;;;9.70;99.90;;;;;;3098671;28;20073;-70
2024/01/26 06:02:30;;;;;;;8.18;7.28;;;9.70;99.90;;;;;;3109721;28;20065;-72
2024/01/26 06:04:01;;;;;;;9.52;8.07;;;9.70;99.90;;;;;;3130501;23;20066;-92
2024/01/26 06:05:34;;;;;;;8.07;7.32;;;9.70;99.90;;;;;;3110494;28;20006;-91
2024/01/26 06:07:05;;;;;;;12.35;8.07;;;9.70;99.90;;;;;;3117487;28;20026;-92
2024/01/26 06:08:36;;;;;;;11.10;8.77;;;9.70;99.90;;;;;;3097491;28;20038;-93
2024/01/26 06:10:07;;;;;;;10.90;8.45;;;9.70;99.90;;;;;;3100516;28;20002;-89
2024/01/26 06:11:43;;;;;;;8.05;7.25;;;9.70;99.90;;;;;;3122833;28;20010;-88
2024/01/26 06:13:13;;;;;;;9.02;8.13;;;9.70;99.90;;;;;;3116808;28;20014;-87
2024/01/26 06:14:44;;;;;;;8.85;8.15;;;9.70;99.90;;;;;;3122604;28;20014;-85
2024/01/26 06:16:15;;;;;;;9.00;8.07;;;9.70;99.90;;;;;;3118807;28;20058;-88
2024/01/26 06:17:49;;;;;;;9.57;8.57;;;9.80;99.90;;;;;;3118519;28;20017;-87
2024/01/26 06:19:19;;;;;;;11.18;9.77;;;9.70;99.90;;;;;;3102834;28;20113;-87
2024/01/26 06:20:51;;;;;;;9.88;8.48;;;9.70;99.90;;;;;;3089442;28;20499;-87
2024/01/26 06:22:22;;;;;;;8.57;7.85;;;9.70;99.90;;;;;;3104398;28;20083;-87
2024/01/26 06:23:52;;;;;;;14.23;9.43;;;9.70;99.90;;;;;;3088614;28;20026;-87
2024/01/26 06:25:24;;;;;;;12.57;10.43;;;9.70;99.90;;;;;;3100609;28;20100;-86
2024/01/26 06:26:55;;;;;;;13.50;9.50;;;9.80;99.90;;;;;;3096449;28;20108;-87
2024/01/26 06:28:25;;;;;;;17.70;10.77;;;9.70;99.90;;;;;;3095743;28;20666;-87
2024/01/26 06:29:56;;;;;;;14.60;10.18;;;9.70;99.90;;;;;;3090327;28;20031;-88
2024/01/26 06:31:27;;;;;;;15.65;11.20;;;9.70;99.90;;;;;;3080060;28;20035;-86
2024/01/26 06:32:58;;;;;;;10.50;9.40;;;9.70;99.90;;;;;;3092149;28;20030;-87
2024/01/26 06:34:29;;;;;;;15.27;11.13;;;9.80;99.90;;;;;;3111248;28;20037;-87
2024/01/26 06:35:59;;;;;;;15.93;9.25;;;9.80;99.90;;;;;;3112361;28;20061;-87
2024/01/26 06:37:30;;;;;;;16.75;12.00;;;9.80;99.90;;;;;;3096256;28;20037;-87
2024/01/26 06:39:01;;;;;;;12.13;10.32;;;9.80;99.90;;;;;;3085100;28;20034;-87
2024/01/26 06:40:33;;;;;;;12.43;11.15;;;9.80;99.90;;;;;;3087666;28;20410;-87
2024/01/26 06:42:04;;;;;;;11.60;10.38;;;9.80;99.90;;;;;;3102460;28;20403;-87
2024/01/26 06:43:35;;;;;;;13.27;12.00;;;9.80;99.90;;;;;;3091254;28;20033;-87
2024/01/26 06:45:10;;;;;;;14.07;11.20;;;9.80;99.90;;;;;;3099565;28;20034;-86
2024/01/26 06:46:41;;;;;;;12.50;11.23;;;9.80;99.90;;;;;;3106555;28;20033;-88
2024/01/26 06:48:12;;;;;;;16.08;12.07;;;9.80;99.90;;;;;;3108038;28;20026;-86
2024/01/26 06:49:43;;;;;;;12.20;10.18;;;9.80;99.90;;;;;;3099433;28;20105;-87
2024/01/26 06:51:14;;;;;;;13.07;11.77;;;9.90;99.90;;;;;;3108836;28;20026;-87
2024/01/26 06:52:45;;;;;;;13.93;12.63;;;9.80;99.90;;;;;;3099966;28;20034;-87
2024/01/26 06:54:15;;;;;;;13.48;11.30;;;9.90;99.90;;;;;;3108377;28;20125;-87
2024/01/26 06:55:47;;;;;;;12.35;11.00;;;9.90;99.90;;;;;;3103807;28;20074;-87
2024/01/26 06:57:18;;;;;;;18.73;12.00;;;9.90;99.90;;;;;;3116359;28;20482;-87
2024/01/26 06:58:48;;;;;;;13.18;11.82;;;9.90;99.90;;;;;;3111716;28;20042;-87
2024/01/26 07:00:19;;;;;;;16.67;14.93;;;9.90;99.90;;;;;;3094332;28;20022;-87
2024/01/26 07:01:50;;;;;;;14.90;12.88;;;10.00;99.90;;;;;;3104304;28;20026;-86
2024/01/26 07:03:21;;;;;;;14.43;12.50;;;10.00;99.90;;;;;;3111630;28;20445;-86
2024/01/26 07:04:52;;;;;;;13.05;10.32;;;10.00;99.90;;;;;;3095412;28;20038;-87
2024/01/26 07:06:22;;;;;;;14.20;12.90;;;10.00;99.90;;;;;;3098744;28;20025;-86
2024/01/26 07:07:54;;;;;;;14.63;12.38;;;10.00;99.90;;;;;;3107911;28;20105;-86
2024/01/26 07:09:25;;;;;;;19.58;17.70;;;10.00;99.90;;;;;;3094156;28;20037;-88
2024/01/26 07:10:56;;;;;;;13.32;12.13;;;10.10;99.90;;;;;;3091525;28;20034;-88
2024/01/26 07:12:27;;;;;;;15.57;14.15;;;10.10;99.90;;;;;;3091066;28;20030;-89
2024/01/26 07:13:58;;;;;;;13.27;11.82;;;;;;;;;;3103274;28;20105;-87
2024/01/26 07:15:29;;;;;;;14.30;11.00;;;10.10;99.90;;;;;;3104687;28;20029;-87
2024/01/26 07:17:00;;;;;;;16.20;10.55;;;10.10;99.90;;;;;;3118536;28;20037;-86
2024/01/26 07:18:32;;;;;;;12.77;11.63;;;10.20;99.90;;;;;;3111110;28;20036;-87
2024/01/26 07:20:04;;;;;;;15.50;13.93;;;10.20;99.90;;;;;;3110089;28;20022;-89
2024/01/26 07:21:35;;;;;;;13.65;12.32;;;10.20;99.90;;;;;;3083053;28;20046;-88
2024/01/26 07:23:06;;;;;;;14.00;11.40;;;10.20;99.90;;;;;;3095168;28;20029;-87
2024/01/26 07:24:37;;;;;;;15.55;13.38;;;10.20;99.90;;;;;;3094695;28;20019;-87
2024/01/26 07:26:08;;;;;;;14.90;11.43;;;10.30;99.90;;;;;;3090881;28;20041;-87
2024/01/26 07:27:38;;;;;;;14.05;11.90;;;10.30;99.90;;;;;;3102916;28;20026;-88
2024/01/26 07:29:09;;;;;;;16.60;13.48;;;10.30;99.90;;;;;;3106977;28;20025;-88
2024/01/26 07:30:40;;;;;;;13.18;9.70;;;10.30;99.90;;;;;;3105407;28;20026;-87
2024/01/26 07:32:11;;;;;;;19.15;13.43;;;10.30;99.90;;;;;;3106413;28;20022;-87
2024/01/26 07:33:42;;;;;;;12.75;11.50;;;10.30;99.90;;;;;;3106692;28;20042;-88
2024/01/26 07:35:13;;;;;;;14.88;10.88;;;10.30;99.90;;;;;;3106663;28;20042;-87
2024/01/26 07:36:45;;;;;;;17.15;12.73;;;10.30;99.90;;;;;;3103456;28;20046;-86
2024/01/26 07:38:16;;;;;;;21.42;19.17;;;10.30;99.90;;;;;;3106704;28;20690;-88
2024/01/26 07:39:47;;;;;;;19.35;14.75;;;10.30;99.90;;;;;;3105688;28;20529;-87
2024/01/26 07:41:18;;;;;;;13.25;11.82;;;10.30;99.90;;;;;;3082497;28;20073;-87
2024/01/26 07:42:49;;;;;;;11.02;9.98;;;10.40;99.90;;;;;;3099311;28;20044;-87
2024/01/26 07:44:20;;;;;;;12.20;10.05;;;10.40;99.90;;;;;;3094551;28;20027;-87
2024/01/26 07:45:51;;;;;;;12.57;11.40;;;10.40;99.90;;;;;;3103154;28;20244;-87
2024/01/26 07:47:22;;;;;;;10.55;9.55;;;10.40;99.90;;;;;;3110619;28;20029;-87
2024/01/26 07:48:53;;;;;;;11.07;9.95;;;10.40;99.90;;;;;;3094893;28;20030;-88
2024/01/26 07:50:24;;;;;;;11.38;10.10;;;10.40;99.90;;;;;;3105516;28;20033;-87
2024/01/26 07:51:54;;;;;;;17.15;9.45;;;10.50;99.90;;;;;;3094889;28;20036;-88
2024/01/26 07:53:25;;;;;;;10.57;9.27;;;10.50;99.90;;;;;;3106535;28;20048;-90